Time;durP1;ratioP1;P1;durP2;ratioP2;P2;SDS_P1;SDS_P2;PMS_P1;PMS_P2;Temp;Humidity;BMP_temperature;BMP_pressure;BME280_temperature;BME280_humidity;BME280_pressure;Samples;Min_cycle;Max_cycle;Signal;HPM_P1;HPM_P2
2023/08/16 00:00:54;;;;;;;7.07;4.03;;;;;20.90;101409.00;;;;5028205;28;20240;-67
2023/08/16 00:03:41;;;;;;;6.87;4.00;;;;;20.90;101415.00;;;;5020605;28;20665;-68
2023/08/16 00:06:28;;;;;;;7.90;3.70;;;;;20.90;101420.00;;;;5023237;28;21341;-67
2023/08/16 00:09:16;;;;;;;5.03;3.90;;;;;20.90;101405.00;;;;5036086;28;20289;-67
2023/08/16 00:12:04;;;;;;;5.57;3.60;;;;;20.80;101411.00;;;;5036811;28;20225;-67
2023/08/16 00:14:51;;;;;;;8.37;4.60;;;;;20.80;101408.00;;;;5032592;28;20238;-68
2023/08/16 00:17:39;;;;;;;5.00;4.13;;;;;20.80;101405.00;;;;5022918;28;20235;-68
2023/08/16 00:20:26;;;;;;;4.60;4.03;;;;;20.80;101402.00;;;;5027962;28;20232;-68
2023/08/16 00:23:13;;;;;;;9.23;3.43;;;;;20.90;101405.00;;;;5035328;28;20244;-67
2023/08/16 00:26:00;;;;;;;4.43;3.27;;;;;20.80;101409.00;;;;5025869;28;20233;-68
2023/08/16 00:28:48;;;;;;;4.40;3.80;;;;;20.90;101407.00;;;;5034777;28;20231;-68
2023/08/16 00:31:34;;;;;;;6.27;3.30;;;;;20.90;101415.00;;;;5023659;28;20236;-67
2023/08/16 00:34:22;;;;;;;4.67;3.53;;;;;20.80;101412.00;;;;5023782;28;20333;-68
2023/08/16 00:37:09;;;;;;;5.63;3.43;;;;;20.70;101405.00;;;;5025034;28;20378;-68
2023/08/16 00:39:56;;;;;;;5.23;3.60;;;;;20.80;101413.00;;;;5040651;28;20247;-67
2023/08/16 00:42:42;;;;;;;7.63;3.87;;;;;20.80;101405.00;;;;5041853;28;20227;-67
2023/08/16 00:45:29;;;;;;;5.93;3.10;;;;;20.80;101406.00;;;;5033728;28;20259;-67
2023/08/16 00:48:16;;;;;;;4.83;3.50;;;;;20.80;101412.00;;;;5029445;28;20240;-67
2023/08/16 00:51:06;;;;;;;4.73;3.23;;;;;20.70;101417.00;;;;5025206;28;20232;-67
2023/08/16 00:53:54;;;;;;;9.90;4.07;;;;;20.70;101415.00;;;;5020431;28;20791;-67
2023/08/16 00:56:41;;;;;;;3.73;3.20;;;;;20.60;101420.00;;;;5024094;28;20872;-67
2023/08/16 00:59:28;;;;;;;4.60;3.80;;;;;20.60;101421.00;;;;5022884;28;20237;-67
2023/08/16 01:02:15;;;;;;;7.60;4.53;;;;;20.60;101422.00;;;;5025456;28;20363;-68
2023/08/16 01:05:01;;;;;;;4.27;3.60;;;;;20.70;101422.00;;;;5023252;28;20236;-67
2023/08/16 01:07:49;;;;;;;6.27;3.93;;;;;20.70;101420.00;;;;5027392;28;20306;-66
2023/08/16 01:10:42;;;;;;;7.97;3.60;;;;;20.60;101418.00;;;;5022623;28;20688;-68
2023/08/16 01:13:38;;;;;;;5.23;3.70;;;;;20.60;101421.00;;;;5020413;28;20240;-67
2023/08/16 01:16:28;;;;;;;6.03;3.80;;;;;20.60;101410.00;;;;5031431;28;20665;-67
2023/08/16 01:19:22;;;;;;;4.73;3.73;;;;;20.60;101403.00;;;;5019401;28;20244;-68
2023/08/16 01:22:17;;;;;;;4.73;3.87;;;;;20.50;101413.00;;;;5019168;28;20290;-68
2023/08/16 01:25:14;;;;;;;8.17;3.50;;;;;20.50;101424.00;;;;5022809;28;20236;-67
2023/08/16 01:28:03;;;;;;;4.80;3.07;;;;;20.50;101408.00;;;;5030121;28;20238;-68
2023/08/16 01:30:50;;;;;;;5.10;3.33;;;;;20.50;101424.00;;;;5021186;28;20689;-67
2023/08/16 01:33:37;;;;;;;8.20;3.73;;;;;20.50;101419.00;;;;5025047;28;20402;-67
2023/08/16 01:36:23;;;;;;;7.47;4.07;;;;;20.50;101419.00;;;;5027781;28;20240;-67
2023/08/16 01:39:10;;;;;;;9.07;3.70;;;;;20.50;101417.00;;;;5029642;28;20233;-68
2023/08/16 01:41:59;;;;;;;7.70;3.77;;;;;20.40;101417.00;;;;5033151;28;20315;-67
2023/08/16 01:44:48;;;;;;;4.33;3.60;;;;;20.40;101408.00;;;;5028941;28;20244;-67
2023/08/16 01:47:36;;;;;;;5.73;3.87;;;;;20.40;101415.00;;;;5031889;28;20814;-69
2023/08/16 01:50:23;;;;;;;5.60;3.80;;;;;20.40;101407.00;;;;5028131;28;20244;-68
2023/08/16 01:53:10;;;;;;;6.70;3.43;;;;;20.40;101408.00;;;;5029555;28;20716;-68
2023/08/16 01:55:57;;;;;;;5.47;3.60;;;;;20.40;101406.00;;;;5029873;28;20747;-68
2023/08/16 01:58:43;;;;;;;7.90;3.90;;;;;20.30;101402.00;;;;5026414;28;21834;-67
2023/08/16 02:01:31;;;;;;;5.77;3.47;;;;;20.30;101413.00;;;;5032960;28;20250;-68
2023/08/16 02:04:18;;;;;;;5.30;4.20;;;;;20.30;101406.00;;;;5024311;28;20240;-67
2023/08/16 02:07:04;;;;;;;5.80;3.70;;;;;20.30;101406.00;;;;5023890;28;20240;-68
2023/08/16 02:09:51;;;;;;;6.17;3.80;;;;;20.30;101399.00;;;;5021477;28;20853;-67
2023/08/16 02:12:37;;;;;;;4.97;3.70;;;;;20.30;101397.00;;;;5028672;28;20251;-67
2023/08/16 02:15:25;;;;;;;6.67;3.70;;;;;20.30;101396.00;;;;5033829;28;20225;-68
2023/08/16 02:18:13;;;;;;;6.07;3.70;;;;;20.30;101397.00;;;;5033012;28;20934;-67
2023/08/16 02:21:00;;;;;;;5.83;3.53;;;;;20.20;101397.00;;;;5022264;28;20240;-68
2023/08/16 02:23:46;;;;;;;4.40;3.03;;;;;20.20;101398.00;;;;5025215;28;20249;-67
2023/08/16 02:26:32;;;;;;;4.97;3.20;;;;;20.10;101392.00;;;;5025844;28;20235;-68
2023/08/16 02:29:19;;;;;;;6.53;3.63;;;;;20.00;101392.00;;;;5017159;28;20759;-67
2023/08/16 02:32:06;;;;;;;6.37;3.60;;;;;19.90;101389.00;;;;5014956;28;20243;-67
2023/08/16 02:34:54;;;;;;;3.73;3.33;;;;;19.80;101392.00;;;;5038239;28;20301;-67
2023/08/16 02:37:42;;;;;;;5.73;3.40;;;;;19.80;101396.00;;;;5016517;28;20297;-68
2023/08/16 02:40:29;;;;;;;5.80;3.50;;;;;19.70;101398.00;;;;5022739;28;20245;-67
2023/08/16 02:43:16;;;;;;;7.50;3.60;;;;;19.70;101401.00;;;;5022972;28;20611;-67
2023/08/16 02:46:02;;;;;;;6.30;3.40;;;;;19.70;101393.00;;;;5022314;28;20240;-68
2023/08/16 02:48:50;;;;;;;5.13;3.40;;;;;19.70;101400.00;;;;5019457;28;20360;-67
2023/08/16 02:51:38;;;;;;;4.87;3.40;;;;;19.60;101400.00;;;;5019202;28;20699;-68
2023/08/16 02:54:24;;;;;;;6.50;3.10;;;;;19.60;101408.00;;;;5023000;28;20237;-67
2023/08/16 02:57:10;;;;;;;5.40;3.23;;;;;19.50;101401.00;;;;5020119;28;20242;-68
2023/08/16 02:59:57;;;;;;;4.90;3.37;;;;;19.40;101394.00;;;;5024037;28;20863;-67
2023/08/16 03:02:43;;;;;;;7.20;3.60;;;;;19.40;101392.00;;;;5011075;28;20233;-67
2023/08/16 03:05:29;;;;;;;4.87;3.73;;;;;19.40;101385.00;;;;5021253;28;20321;-67
2023/08/16 03:08:17;;;;;;;5.93;3.97;;;;;19.40;101387.00;;;;5039940;28;20230;-68
2023/08/16 03:11:03;;;;;;;5.90;3.57;;;;;19.40;101385.00;;;;5031002;28;20296;-68
2023/08/16 03:13:50;;;;;;;5.80;3.70;;;;;19.40;101398.00;;;;5020840;28;20724;-67
2023/08/16 03:16:36;;;;;;;4.80;4.10;;;;;19.40;101390.00;;;;5021862;28;20275;-67
2023/08/16 03:19:23;;;;;;;7.43;3.63;;;;;19.30;101397.00;;;;5020784;28;20607;-68
2023/08/16 03:22:09;;;;;;;5.30;3.33;;;;;19.40;101397.00;;;;5006088;28;20242;-67
2023/08/16 03:24:57;;;;;;;5.73;3.43;;;;;19.40;101398.00;;;;5028021;28;20230;-67
2023/08/16 03:27:44;;;;;;;5.90;3.47;;;;;19.30;101402.00;;;;5028748;28;20222;-67
2023/08/16 03:30:30;;;;;;;4.20;3.60;;;;;19.40;101407.00;;;;5023566;28;20295;-68
2023/08/16 03:33:17;;;;;;;8.27;3.90;;;;;19.40;101406.00;;;;5019431;28;20253;-67
2023/08/16 03:36:04;;;;;;;3.90;3.50;;;;;19.40;101402.00;;;;5024528;28;20834;-67
2023/08/16 03:38:50;;;;;;;6.50;3.90;;;;;19.40;101400.00;;;;5024270;28;20231;-67
2023/08/16 03:41:38;;;;;;;5.27;4.03;;;;;19.40;101412.00;;;;5024415;28;20235;-67
2023/08/16 03:44:25;;;;;;;5.87;3.60;;;;;19.50;101406.00;;;;5023738;28;20320;-67
2023/08/16 03:47:11;;;;;;;4.57;3.90;;;;;19.50;101409.00;;;;5024431;28;20238;-67
2023/08/16 03:49:59;;;;;;;5.57;4.37;;;;;19.50;101409.00;;;;5018313;28;20735;-67
2023/08/16 03:52:46;;;;;;;4.20;3.80;;;;;19.50;101410.00;;;;5021297;28;20221;-67
2023/08/16 03:55:32;;;;;;;7.23;4.00;;;;;19.50;101407.00;;;;5025014;28;20297;-67
2023/08/16 03:58:20;;;;;;;6.27;4.00;;;;;19.50;101409.00;;;;5018077;28;20233;-67
2023/08/16 04:01:07;;;;;;;9.17;4.20;;;;;19.50;101413.00;;;;5015688;28;20229;-67
2023/08/16 04:03:53;;;;;;;6.30;3.90;;;;;19.50;101408.00;;;;5015476;28;20233;-67
2023/08/16 04:06:40;;;;;;;7.47;4.90;;;;;19.40;101408.00;;;;5017480;28;20232;-67
2023/08/16 04:09:26;;;;;;;8.13;5.33;;;;;19.50;101422.00;;;;5028905;28;20766;-67
2023/08/16 04:12:13;;;;;;;7.80;5.13;;;;;19.50;101412.00;;;;5040532;28;20303;-68
2023/08/16 04:15:01;;;;;;;7.63;4.77;;;;;19.50;101425.00;;;;5032813;28;20286;-68
2023/08/16 04:17:47;;;;;;;6.70;4.90;;;;;19.60;101419.00;;;;5024442;28;20225;-68
2023/08/16 04:20:33;;;;;;;7.40;4.97;;;;;19.60;101425.00;;;;5029024;28;20298;-67
2023/08/16 04:23:20;;;;;;;5.47;4.03;;;;;19.60;101429.00;;;;5025736;28;20244;-66
2023/08/16 04:26:06;;;;;;;5.83;3.80;;;;;19.50;101437.00;;;;5035839;28;20323;-68
2023/08/16 04:28:54;;;;;;;7.97;4.87;;;;;19.60;101437.00;;;;5029546;28;20280;-67
2023/08/16 04:31:41;;;;;;;6.37;4.50;;;;;19.60;101430.00;;;;5027190;28;20411;-67
2023/08/16 04:34:28;;;;;;;7.87;4.07;;;;;19.60;101445.00;;;;5043547;28;20248;-67
2023/08/16 04:37:14;;;;;;;6.43;4.33;;;;;19.60;101433.00;;;;5032163;28;20230;-67
2023/08/16 04:40:00;;;;;;;9.23;5.43;;;;;19.60;101429.00;;;;5024888;28;20274;-68
2023/08/16 04:42:47;;;;;;;7.93;5.30;;;;;19.60;101422.00;;;;5029694;28;20261;-68
2023/08/16 04:45:34;;;;;;;9.50;6.13;;;;;19.60;101420.00;;;;5027356;28;20229;-68
2023/08/16 04:48:21;;;;;;;11.30;6.30;;;;;19.70;101419.00;;;;5026248;28;20614;-68
2023/08/16 04:51:08;;;;;;;9.10;5.87;;;;;19.70;101416.00;;;;5021077;28;20296;-67
2023/08/16 04:53:55;;;;;;;12.03;6.57;;;;;19.80;101428.00;;;;5027473;28;20234;-67
2023/08/16 04:56:41;;;;;;;8.10;6.53;;;;;19.90;101432.00;;;;5024898;28;20274;-68
2023/08/16 04:59:27;;;;;;;8.40;6.10;;;;;20.00;101447.00;;;;5025913;28;20590;-68
2023/08/16 05:02:14;;;;;;;7.17;5.23;;;;;20.00;101448.00;;;;5022896;28;20749;-68
2023/08/16 05:05:02;;;;;;;8.20;6.10;;;;;20.00;101451.00;;;;5025566;28;20361;-68
2023/08/16 05:07:48;;;;;;;11.30;6.50;;;;;19.90;101448.00;;;;5028277;28;20229;-67
2023/08/16 05:10:35;;;;;;;10.23;6.10;;;;;19.90;101458.00;;;;5021446;28;20230;-68
2023/08/16 05:13:21;;;;;;;11.67;5.60;;;;;19.90;101460.00;;;;5027412;28;20231;-68
2023/08/16 05:16:08;;;;;;;8.20;5.87;;;;;19.90;101462.00;;;;5026720;28;20239;-68
2023/08/16 05:18:57;;;;;;;6.80;5.10;;;;;19.90;101470.00;;;;5025460;28;20316;-68
2023/08/16 05:21:45;;;;;;;7.33;5.47;;;;;19.90;101485.00;;;;5016407;28;20292;-68
2023/08/16 05:24:32;;;;;;;8.30;5.10;;;;;19.90;101491.00;;;;5022265;28;20282;-67
2023/08/16 05:27:18;;;;;;;6.90;5.17;;;;;19.80;101498.00;;;;5021899;28;20341;-68
2023/08/16 05:30:06;;;;;;;7.43;5.63;;;;;19.80;101503.00;;;;5022675;28;20361;-67
2023/08/16 05:32:55;;;;;;;6.83;5.13;;;;;19.70;101506.00;;;;5018939;28;20709;-68
2023/08/16 05:35:41;;;;;;;13.60;6.70;;;;;19.80;101517.00;;;;5024153;28;20252;-67
2023/08/16 05:38:28;;;;;;;13.47;6.77;;;;;19.70;101502.00;;;;5024312;28;20259;-67
2023/08/16 05:41:15;;;;;;;13.73;7.63;;;;;19.60;101517.00;;;;5025149;28;20238;-67
2023/08/16 05:44:01;;;;;;;13.33;6.97;;;;;19.60;101517.00;;;;5021738;28;20348;-68
2023/08/16 05:46:48;;;;;;;13.70;7.90;;;;;19.50;101524.00;;;;5028251;28;20296;-67
2023/08/16 05:49:35;;;;;;;12.37;8.30;;;;;19.50;101528.00;;;;5032488;28;20267;-67
2023/08/16 05:52:21;;;;;;;14.23;8.60;;;;;19.50;101524.00;;;;5025318;28;20235;-67
2023/08/16 05:55:09;;;;;;;16.47;9.33;;;;;19.40;101538.00;;;;5029473;28;20272;-66
2023/08/16 05:57:56;;;;;;;14.43;8.97;;;;;19.30;101539.00;;;;5020884;28;20238;-68
2023/08/16 06:00:45;;;;;;;16.10;9.20;;;;;19.30;101552.00;;;;5021368;28;20246;-68
2023/08/16 06:03:31;;;;;;;14.70;9.20;;;;;19.30;101560.00;;;;5020286;28;20938;-68
2023/08/16 06:06:18;;;;;;;15.23;9.30;;;;;19.40;101553.00;;;;5025793;28;20241;-66
2023/08/16 06:09:05;;;;;;;14.40;9.03;;;;;19.30;101535.00;;;;5026889;28;20222;-67
2023/08/16 06:11:53;;;;;;;14.03;8.57;;;;;19.30;101526.00;;;;5026651;28;20239;-67
2023/08/16 06:14:39;;;;;;;14.43;9.77;;;;;19.40;101531.00;;;;5007720;28;20349;-67
2023/08/16 06:17:25;;;;;;;17.00;9.13;;;;;19.40;101538.00;;;;5033338;28;20289;-68
2023/08/16 06:20:14;;;;;;;11.77;8.30;;;;;19.40;101532.00;;;;5027121;28;20239;-67
2023/08/16 06:23:01;;;;;;;16.27;9.60;;;;;19.40;101517.00;;;;5034675;28;20676;-67
2023/08/16 06:25:48;;;;;;;13.47;9.47;;;;;19.50;101525.00;;;;5021888;28;20725;-68
2023/08/16 06:28:35;;;;;;;14.33;9.37;;;;;19.50;101528.00;;;;5021092;28;20303;-67
2023/08/16 06:31:22;;;;;;;11.43;9.10;;;;;19.50;101530.00;;;;5026254;28;20241;-67
2023/08/16 06:34:08;;;;;;;12.73;9.07;;;;;19.50;101533.00;;;;5020063;28;20234;-67
2023/08/16 06:36:55;;;;;;;16.03;10.00;;;;;19.50;101520.00;;;;5020046;28;20233;-68
2023/08/16 06:39:42;;;;;;;13.47;9.23;;;;;19.70;101523.00;;;;5024914;28;20242;-69
2023/08/16 06:42:29;;;;;;;14.43;9.63;;;;;19.70;101525.00;;;;5017663;28;20238;-68
2023/08/16 06:45:17;;;;;;;14.50;8.90;;;;;19.70;101528.00;;;;5022842;28;20285;-68
2023/08/16 06:48:04;;;;;;;13.40;9.57;;;;;19.80;101531.00;;;;5014187;28;20230;-68
2023/08/16 06:50:51;;;;;;;18.17;9.40;;;;;19.70;101531.00;;;;5029534;28;20245;-69
2023/08/16 06:53:39;;;;;;;12.77;8.90;;;;;19.70;101526.00;;;;5025105;28;20679;-67
2023/08/16 06:56:26;;;;;;;12.93;9.40;;;;;19.70;101527.00;;;;5020768;28;20778;-68
2023/08/16 06:59:12;;;;;;;15.53;8.87;;;;;19.70;101528.00;;;;5022106;28;20291;-69
2023/08/16 07:02:00;;;;;;;13.53;9.73;;;;;19.60;101536.00;;;;5025374;28;20230;-66
2023/08/16 07:04:46;;;;;;;13.80;9.43;;;;;19.70;101537.00;;;;5035314;28;20600;-67
2023/08/16 07:07:33;;;;;;;15.47;9.83;;;;;19.70;101535.00;;;;5030532;28;20250;-67
2023/08/16 07:10:20;;;;;;;16.43;10.83;;;;;19.70;101537.00;;;;5031446;28;20685;-66
2023/08/16 07:13:06;;;;;;;13.50;9.83;;;;;19.80;101537.00;;;;5026479;28;20221;-67
2023/08/16 07:15:53;;;;;;;16.30;10.30;;;;;19.90;101544.00;;;;5030046;28;20229;-67
2023/08/16 07:18:41;;;;;;;17.33;10.10;;;;;19.90;101545.00;;;;5023013;28;20225;-67
2023/08/16 07:21:27;;;;;;;14.43;9.97;;;;;19.90;101536.00;;;;5021507;28;20761;-66
2023/08/16 07:24:13;;;;;;;13.97;9.20;;;;;19.90;101532.00;;;;5022075;28;20302;-66
2023/08/16 07:27:00;;;;;;;11.70;9.30;;;;;20.00;101537.00;;;;5025215;28;20232;-66
2023/08/16 07:29:47;;;;;;;14.20;9.70;;;;;19.90;101539.00;;;;5015582;28;20228;-67
2023/08/16 07:32:33;;;;;;;14.50;9.07;;;;;20.00;101541.00;;;;5034660;28;20234;-67
2023/08/16 07:35:22;;;;;;;15.40;9.90;;;;;20.00;101545.00;;;;5018805;28;20349;-66
2023/08/16 07:38:08;;;;;;;13.80;9.03;;;;;20.00;101542.00;;;;5022067;28;20237;-67
2023/08/16 07:40:55;;;;;;;13.20;9.03;;;;;20.10;101541.00;;;;5024018;28;20235;-66
2023/08/16 07:43:41;;;;;;;10.97;8.90;;;;;20.10;101534.00;;;;5023651;28;20242;-67
2023/08/16 07:46:27;;;;;;;12.70;9.07;;;;;20.40;101537.00;;;;5025210;28;20266;-67
2023/08/16 07:49:14;;;;;;;11.73;8.60;;;;;20.60;101542.00;;;;5024088;28;20259;-66
2023/08/16 07:52:02;;;;;;;11.27;7.73;;;;;20.60;101542.00;;;;5023921;28;20374;-66
2023/08/16 07:54:49;;;;;;;11.30;8.17;;;;;20.60;101538.00;;;;5024160;28;20231;-67
2023/08/16 07:57:36;;;;;;;11.13;7.83;;;;;20.60;101550.00;;;;5020294;28;20244;-66
2023/08/16 08:00:23;;;;;;;14.33;8.30;;;;;20.60;101543.00;;;;5031097;28;20240;-67
2023/08/16 08:03:09;;;;;;;11.27;8.03;;;;;20.50;101555.00;;;;5025364;28;20231;-66
2023/08/16 08:06:01;;;;;;;11.80;7.77;;;;;20.60;101557.00;;;;5023517;28;20244;-67
2023/08/16 08:08:49;;;;;;;10.97;7.50;;;;;20.60;101560.00;;;;5020713;28;20347;-66
2023/08/16 08:11:37;;;;;;;10.60;7.23;;;;;20.70;101563.00;;;;5023609;28;20235;-66
2023/08/16 08:14:24;;;;;;;14.33;7.60;;;;;20.80;101555.00;;;;5038787;28;20240;-67
2023/08/16 08:17:10;;;;;;;11.33;7.07;;;;;20.80;101557.00;;;;5018136;28;20648;-67
2023/08/16 08:19:56;;;;;;;10.40;7.17;;;;;21.00;101556.00;;;;5028633;28;20240;-66
2023/08/16 08:22:43;;;;;;;10.00;7.10;;;;;21.10;101555.00;;;;5022756;28;20232;-67
2023/08/16 08:25:31;;;;;;;9.77;6.63;;;;;21.10;101544.00;;;;5017529;28;20302;-67
2023/08/16 08:28:18;;;;;;;11.87;7.13;;;;;21.30;101549.00;;;;5014761;28;20360;-68
2023/08/16 08:31:05;;;;;;;10.30;7.47;;;;;21.40;101552.00;;;;5020094;28;20276;-67
2023/08/16 08:33:51;;;;;;;8.63;6.13;;;;;21.40;101568.00;;;;5018633;28;20360;-67
2023/08/16 08:36:38;;;;;;;8.83;6.13;;;;;21.30;101561.00;;;;5018333;28;20760;-67
2023/08/16 08:39:26;;;;;;;11.50;6.23;;;;;21.40;101561.00;;;;5035743;28;20229;-67
2023/08/16 08:42:15;;;;;;;11.93;6.33;;;;;21.50;101565.00;;;;5023963;28;20234;-68
2023/08/16 08:45:03;;;;;;;9.73;5.47;;;;;21.50;101571.00;;;;5025439;28;20230;-67
2023/08/16 08:47:50;;;;;;;9.30;5.63;;;;;21.50;101569.00;;;;5032801;28;20332;-65
2023/08/16 08:50:38;;;;;;;6.60;5.13;;;;;21.60;101573.00;;;;5043346;28;20237;-66
2023/08/16 08:53:25;;;;;;;8.27;5.50;;;;;21.80;101575.00;;;;5036319;28;20228;-66
2023/08/16 08:56:15;;;;;;;7.43;4.67;;;;;21.90;101571.00;;;;5037973;28;20298;-67
2023/08/16 08:59:04;;;;;;;6.53;4.87;;;;;21.90;101574.00;;;;5046602;28;20750;-66
2023/08/16 09:02:01;;;;;;;7.33;5.10;;;;;21.90;101572.00;;;;5026343;28;20707;-69
2023/08/16 09:04:50;;;;;;;6.90;5.27;;;;;22.10;101580.00;;;;5039973;28;20241;-66
2023/08/16 09:07:39;;;;;;;7.97;4.70;;;;;22.30;101576.00;;;;5035060;28;20233;-68
2023/08/16 09:10:27;;;;;;;6.93;4.63;;;;;22.40;101582.00;;;;5025343;28;20348;-68
2023/08/16 09:13:15;;;;;;;8.17;4.70;;;;;22.20;101585.00;;;;5016464;28;20234;-67
2023/08/16 09:16:03;;;;;;;7.27;4.80;;;;;21.90;101588.00;;;;5026269;28;20299;-68
2023/08/16 09:18:49;;;;;;;7.17;5.20;;;;;21.90;101583.00;;;;5020413;28;20229;-68
2023/08/16 09:21:36;;;;;;;9.20;5.03;;;;;21.90;101583.00;;;;5019187;28;20272;-68
2023/08/16 09:24:23;;;;;;;5.93;4.73;;;;;21.90;101580.00;;;;5025323;28;20264;-69
2023/08/16 09:27:10;;;;;;;7.40;4.57;;;;;21.90;101591.00;;;;5025286;28;20273;-69
2023/08/16 09:29:57;;;;;;;7.30;4.70;;;;;21.90;101585.00;;;;5020585;28;20253;-68
2023/08/16 09:32:45;;;;;;;6.27;4.30;;;;;22.00;101580.00;;;;5038462;28;20298;-69
2023/08/16 09:35:34;;;;;;;6.37;4.70;;;;;22.30;101574.00;;;;5026201;28;20228;-68
2023/08/16 09:38:22;;;;;;;8.03;4.60;;;;;22.70;101585.00;;;;5019885;28;20234;-67
2023/08/16 09:41:16;;;;;;;6.53;4.70;;;;;22.80;101582.00;;;;5019697;28;20233;-68
2023/08/16 09:44:04;;;;;;;10.83;4.87;;;;;23.00;101581.00;;;;5024154;28;20591;-68
2023/08/16 09:46:52;;;;;;;8.80;4.80;;;;;22.80;101584.00;;;;5022718;28;20241;-68
2023/08/16 09:49:43;;;;;;;6.10;4.10;;;;;22.80;101586.00;;;;5013809;28;20233;-68
2023/08/16 09:52:31;;;;;;;7.07;4.40;;;;;22.80;101587.00;;;;5022965;28;20273;-68
2023/08/16 09:55:29;;;;;;;8.73;4.90;;;;;22.80;101592.00;;;;5027872;28;20712;-67
2023/08/16 09:58:18;;;;;;;6.50;4.30;;;;;22.70;101590.00;;;;5022203;28;20230;-69
2023/08/16 10:01:04;;;;;;;7.57;4.10;;;;;22.70;101589.00;;;;5021382;28;20697;-68
2023/08/16 10:04:11;;;;;;;6.43;4.00;;;;;22.60;101578.00;;;;5031663;28;20248;-68
2023/08/16 10:07:04;;;;;;;5.73;4.20;;;;;22.70;101581.00;;;;5035526;28;20353;-68
2023/08/16 10:09:54;;;;;;;7.57;4.43;;;;;22.50;101588.00;;;;5045854;28;20312;-68
2023/08/16 10:12:40;;;;;;;6.23;4.67;;;;;22.40;101588.00;;;;5042954;28;20205;-67
2023/08/16 10:15:27;;;;;;;7.37;4.60;;;;;22.30;101583.00;;;;5024740;28;20978;-67
2023/08/16 10:18:14;;;;;;;6.70;4.70;;;;;22.10;101596.00;;;;5035820;28;20252;-68
2023/08/16 10:21:01;;;;;;;6.83;4.60;;;;;21.80;101594.00;;;;5024721;28;20224;-68
2023/08/16 10:23:52;;;;;;;6.47;4.90;;;;;21.80;101598.00;;;;5037327;28;20236;-68
2023/08/16 10:26:39;;;;;;;6.80;4.70;;;;;21.80;101601.00;;;;5019663;28;20241;-69
2023/08/16 10:29:27;;;;;;;7.27;4.67;;;;;21.90;101601.00;;;;5024607;28;20225;-67
2023/08/16 10:32:16;;;;;;;5.57;4.33;;;;;21.90;101595.00;;;;5020399;28;20233;-69
2023/08/16 10:35:03;;;;;;;8.00;4.43;;;;;22.10;101582.00;;;;5023427;28;20225;-69
2023/08/16 10:37:53;;;;;;;5.93;4.43;;;;;22.20;101599.00;;;;5023979;28;20225;-68
2023/08/16 10:40:41;;;;;;;6.30;4.57;;;;;22.20;101602.00;;;;5039183;28;20275;-69
2023/08/16 10:43:35;;;;;;;7.00;4.53;;;;;22.10;101584.00;;;;5018196;28;20249;-68
2023/08/16 10:46:28;;;;;;;7.70;4.77;;;;;22.20;101596.00;;;;5019988;28;20269;-66
2023/08/16 10:49:15;;;;;;;7.30;4.03;;;;;22.20;101591.00;;;;5023652;28;20611;-68
2023/08/16 10:52:02;;;;;;;5.53;4.17;;;;;22.10;101590.00;;;;5026558;28;20344;-68
2023/08/16 10:54:49;;;;;;;9.37;4.47;;;;;22.10;101588.00;;;;5016903;28;20810;-67
2023/08/16 10:57:37;;;;;;;9.07;4.30;;;;;22.30;101592.00;;;;5029626;28;20618;-66
2023/08/16 11:00:32;;;;;;;6.03;4.43;;;;;22.40;101601.00;;;;5037482;28;20221;-67
2023/08/16 11:03:19;;;;;;;7.37;4.50;;;;;22.40;101602.00;;;;5038154;28;20236;-68
2023/08/16 11:06:11;;;;;;;9.20;4.53;;;;;22.70;101602.00;;;;5055036;28;20252;-70
2023/08/16 11:08:57;;;;;;;6.50;4.40;;;;;22.90;101600.00;;;;5050354;28;20261;-71
2023/08/16 11:11:45;;;;;;;7.60;4.80;;;;;23.00;101598.00;;;;5056659;28;20229;-70
2023/08/16 11:14:34;;;;;;;5.87;4.37;;;;;22.90;101593.00;;;;5024085;28;20232;-71
2023/08/16 11:17:20;;;;;;;7.87;4.70;;;;;22.80;101586.00;;;;5050133;28;20348;-70
2023/08/16 11:20:09;;;;;;;5.63;4.53;;;;;22.80;101585.00;;;;5044629;28;20240;-70
2023/08/16 11:22:59;;;;;;;6.93;4.90;;;;;23.00;101582.00;;;;5023138;28;20226;-70
2023/08/16 11:25:46;;;;;;;6.20;3.90;;;;;23.20;101591.00;;;;5029878;28;20284;-69
2023/08/16 11:28:34;;;;;;;5.37;4.10;;;;;23.60;101589.00;;;;5018139;28;20855;-72
2023/08/16 11:31:26;;;;;;;5.57;4.30;;;;;23.80;101585.00;;;;5023093;28;20295;-69
2023/08/16 11:34:13;;;;;;;8.17;4.33;;;;;23.60;101583.00;;;;5028925;28;20245;-68
2023/08/16 11:36:59;;;;;;;5.93;3.70;;;;;23.70;101583.00;;;;5030050;28;20247;-69
2023/08/16 11:39:46;;;;;;;4.03;3.30;;;;;23.80;101585.00;;;;5030241;28;20634;-69
2023/08/16 11:42:32;;;;;;;5.93;4.17;;;;;23.70;101585.00;;;;5016468;28;20955;-70
2023/08/16 11:45:20;;;;;;;5.63;3.87;;;;;23.60;101576.00;;;;5017929;28;20245;-69
2023/08/16 11:48:07;;;;;;;6.00;3.73;;;;;23.80;101583.00;;;;5023247;28;20245;-70
2023/08/16 11:50:55;;;;;;;5.80;3.03;;;;;23.90;101579.00;;;;5017671;28;20249;-69
2023/08/16 11:53:41;;;;;;;6.47;3.43;;;;;24.00;101575.00;;;;5018826;28;20229;-69
2023/08/16 11:56:29;;;;;;;6.03;3.37;;;;;23.90;101583.00;;;;5020901;28;20353;-68
2023/08/16 11:59:25;;;;;;;7.20;3.70;;;;;24.20;101575.00;;;;5015219;28;20683;-70
2023/08/16 12:02:13;;;;;;;5.53;3.10;;;;;24.30;101584.00;;;;5024331;28;20229;-71
2023/08/16 12:05:09;;;;;;;3.93;2.80;;;;;24.60;101581.00;;;;5024298;28;20229;-69
2023/08/16 12:07:56;;;;;;;2.83;2.57;;;;;24.60;101586.00;;;;5027731;28;20275;-70
2023/08/16 12:10:42;;;;;;;3.97;2.92;;;;;24.40;101574.00;;;;5013674;28;20234;-69
2023/08/16 12:13:29;;;;;;;3.80;3.00;;;;;24.30;101580.00;;;;5023848;28;20233;-67
2023/08/16 12:16:15;;;;;;;4.60;3.23;;;;;24.00;101569.00;;;;5023754;28;20602;-68
2023/08/16 12:19:02;;;;;;;6.10;3.77;;;;;24.20;101573.00;;;;5044138;28;20271;-69
2023/08/16 12:21:50;;;;;;;3.77;3.20;;;;;24.10;101565.00;;;;5019996;28;20307;-70
2023/08/16 12:24:36;;;;;;;5.00;3.10;;;;;24.20;101568.00;;;;5026446;28;20706;-70
2023/08/16 12:27:23;;;;;;;3.97;3.13;;;;;23.90;101559.00;;;;5023029;28;20607;-68
2023/08/16 12:30:10;;;;;;;5.20;3.10;;;;;23.90;101554.00;;;;5025802;28;20296;-68
2023/08/16 12:32:56;;;;;;;5.17;3.30;;;;;23.90;101544.00;;;;5024304;28;20283;-67
2023/08/16 12:35:42;;;;;;;6.33;3.10;;;;;24.10;101535.00;;;;5028477;28;20228;-66
2023/08/16 12:38:30;;;;;;;4.00;3.20;;;;;24.10;101537.00;;;;5021754;28;20898;-69
2023/08/16 12:41:17;;;;;;;4.40;3.10;;;;;24.20;101518.00;;;;5021181;28;20242;-69
2023/08/16 12:44:04;;;;;;;4.10;2.77;;;;;24.40;101525.00;;;;5028247;28;20230;-69
2023/08/16 12:46:50;;;;;;;4.67;3.00;;;;;24.50;101539.00;;;;5019698;28;20233;-68
2023/08/16 12:49:37;;;;;;;4.10;2.63;;;;;24.50;101531.00;;;;5015876;28;20725;-69
2023/08/16 12:52:23;;;;;;;7.67;3.20;;;;;24.60;101535.00;;;;5024433;28;20284;-69
2023/08/16 12:55:11;;;;;;;4.23;3.07;;;;;24.70;101530.00;;;;5020590;28;20360;-68
2023/08/16 12:57:58;;;;;;;4.97;2.73;;;;;24.60;101527.00;;;;5015629;28;20241;-66
2023/08/16 13:00:48;;;;;;;3.17;2.80;;;;;24.40;101535.00;;;;5022504;28;20229;-66
2023/08/16 13:03:34;;;;;;;4.47;2.87;;;;;24.60;101541.00;;;;5034045;28;20357;-69
2023/08/16 13:06:23;;;;;;;5.80;2.80;;;;;24.50;101541.00;;;;5027090;28;20236;-69
2023/08/16 13:09:13;;;;;;;3.37;2.77;;;;;24.40;101537.00;;;;5027646;28;20269;-69
2023/08/16 13:12:12;;;;;;;3.40;2.87;;;;;24.40;101544.00;;;;5024408;28;20233;-68
2023/08/16 13:14:59;;;;;;;4.90;3.40;;;;;24.40;101543.00;;;;5026749;28;20233;-68
2023/08/16 13:17:49;;;;;;;4.67;3.27;;;;;24.50;101539.00;;;;5024124;28;20228;-67
2023/08/16 13:20:56;;;;;;;3.93;3.20;;;;;24.60;101538.00;;;;5019836;28;20275;-68
2023/08/16 13:23:51;;;;;;;3.67;3.03;;;;;24.50;101546.00;;;;5026991;28;20229;-67
2023/08/16 13:26:56;;;;;;;4.97;3.50;;;;;24.50;101534.00;;;;5017135;28;20242;-66
2023/08/16 13:29:50;;;;;;;5.13;3.20;;;;;24.50;101535.00;;;;5023712;28;20226;-68
2023/08/16 13:32:46;;;;;;;5.40;3.40;;;;;24.50;101539.00;;;;5017093;28;20751;-68
2023/08/16 13:35:43;;;;;;;4.63;3.40;;;;;24.40;101532.00;;;;5025043;28;20735;-68
2023/08/16 13:38:32;;;;;;;8.30;3.53;;;;;24.40;101540.00;;;;5022709;28;20230;-68
2023/08/16 13:41:33;;;;;;;4.27;3.03;;;;;24.30;101534.00;;;;5017604;28;20688;-68
2023/08/16 13:44:30;;;;;;;4.30;3.70;;;;;24.30;101540.00;;;;5041018;28;20225;-67
2023/08/16 13:47:20;;;;;;;6.77;3.40;;;;;24.30;101528.00;;;;5043715;28;20299;-67